Time;durP1;ratioP1;P1;durP2;ratioP2;P2;SDS_P1;SDS_P2;PMS_P1;PMS_P2;Temp;Humidity;BMP_temperature;BMP_pressure;BME280_temperature;BME280_humidity;BME280_pressure;Samples;Min_cycle;Max_cycle;Signal;HPM_P1;HPM_P2
2022/03/10 00:02:25;;;;;;;20.30;10.00;;;7.60;44.90;;;;;;9993935;28;20460;-62
2022/03/10 00:07:16;;;;;;;22.25;11.02;;;7.40;44.80;;;;;;9996980;28;20053;-61
2022/03/10 00:12:07;;;;;;;25.30;11.30;;;7.30;45.00;;;;;;9994130;28;20109;-62
2022/03/10 00:16:58;;;;;;;23.15;12.13;;;7.30;45.10;;;;;;10010821;28;20080;-61
2022/03/10 00:21:49;;;;;;;25.67;12.43;;;7.30;45.10;;;;;;10002944;28;20032;-63
2022/03/10 00:26:41;;;;;;;21.88;10.90;;;7.30;45.00;;;;;;10012974;28;20112;-64
2022/03/10 00:31:32;;;;;;;26.50;11.13;;;7.20;45.10;;;;;;9996398;28;20122;-62
2022/03/10 00:36:23;;;;;;;20.23;9.82;;;7.30;45.10;;;;;;10000375;28;20396;-62
2022/03/10 00:41:14;;;;;;;24.55;9.95;;;7.20;45.10;;;;;;10003074;28;20322;-62
2022/03/10 00:46:04;;;;;;;20.27;9.95;;;7.10;45.20;;;;;;10009292;28;20497;-62
2022/03/10 00:50:55;;;;;;;24.63;10.98;;;7.00;45.40;;;;;;9999355;28;20032;-63
2022/03/10 00:55:46;;;;;;;22.67;9.93;;;7.00;45.40;;;;;;10001870;28;20073;-62
2022/03/10 01:00:36;;;;;;;19.77;10.73;;;7.00;45.50;;;;;;10009813;28;20160;-63
2022/03/10 01:05:27;;;;;;;23.70;9.95;;;6.90;45.50;;;;;;9990470;28;20038;-63
2022/03/10 01:10:19;;;;;;;20.77;10.13;;;6.90;45.50;;;;;;10008370;28;20034;-63
2022/03/10 01:15:10;;;;;;;22.67;10.30;;;6.90;45.60;;;;;;10003774;28;20042;-63
2022/03/10 01:20:01;;;;;;;23.10;9.90;;;6.80;45.80;;;;;;10003860;28;20029;-63
2022/03/10 01:24:51;;;;;;;18.02;10.30;;;6.80;45.90;;;;;;10006997;28;20101;-62
2022/03/10 01:29:42;;;;;;;20.70;10.35;;;6.80;45.90;;;;;;10002520;28;20062;-62
2022/03/10 01:34:33;;;;;;;22.80;10.52;;;6.80;45.90;;;;;;10010071;28;20084;-63
2022/03/10 01:39:24;;;;;;;23.08;11.00;;;6.70;46.10;;;;;;10016078;28;20084;-63
2022/03/10 01:44:15;;;;;;;20.17;10.32;;;6.70;46.10;;;;;;10015784;28;20035;-62
2022/03/10 01:49:07;;;;;;;23.67;11.70;;;6.70;46.10;;;;;;10019988;28;20089;-64
2022/03/10 01:53:58;;;;;;;31.58;12.07;;;6.60;46.10;;;;;;10008805;28;20029;-63
2022/03/10 01:58:52;;;;;;;23.27;10.77;;;6.40;46.30;;;;;;10025300;28;20146;-62
2022/03/10 02:03:43;;;;;;;24.70;11.60;;;6.40;46.60;;;;;;9991509;28;20030;-63
2022/03/10 02:13:43;;;;;;;29.02;10.98;;;6.30;47.10;;;;;;10001297;28;20057;-64
2022/03/10 02:18:33;;;;;;;24.95;12.10;;;6.20;47.30;;;;;;10012925;28;20432;-64
2022/03/10 02:23:25;;;;;;;26.52;12.00;;;6.20;47.30;;;;;;10015478;28;20230;-64
2022/03/10 02:28:52;;;;;;;25.25;11.13;;;6.20;47.40;;;;;;10002284;28;20029;-63
2022/03/10 02:33:43;;;;;;;21.00;11.80;;;6.10;47.80;;;;;;9991417;28;20091;-63
2022/03/10 02:38:34;;;;;;;21.88;11.07;;;6.10;47.80;;;;;;10011066;28;20056;-64
2022/03/10 02:43:25;;;;;;;25.45;11.43;;;6.00;48.00;;;;;;10007333;28;20129;-65
2022/03/10 02:48:16;;;;;;;22.05;10.85;;;6.00;48.00;;;;;;10021363;28;20050;-64
2022/03/10 02:53:07;;;;;;;21.33;10.55;;;6.00;48.20;;;;;;10001511;28;20062;-65
2022/03/10 02:57:58;;;;;;;24.85;10.80;;;6.00;48.40;;;;;;10008528;28;20072;-65
2022/03/10 03:02:49;;;;;;;20.58;10.25;;;6.00;48.70;;;;;;10002556;28;20534;-64
2022/03/10 03:07:41;;;;;;;23.08;10.75;;;6.00;48.60;;;;;;10012301;28;20393;-64
2022/03/10 03:12:32;;;;;;;29.55;11.32;;;5.90;48.70;;;;;;10011913;28;20077;-64
2022/03/10 03:17:24;;;;;;;21.23;10.38;;;5.90;49.00;;;;;;10006417;28;20042;-64
2022/03/10 03:22:15;;;;;;;19.00;10.35;;;5.90;49.10;;;;;;10005471;28;20042;-64
2022/03/10 03:27:06;;;;;;;25.95;10.63;;;5.90;49.20;;;;;;10006145;28;20041;-64
2022/03/10 03:31:56;;;;;;;24.35;9.02;;;5.80;49.30;;;;;;10005512;28;20033;-65
2022/03/10 03:36:47;;;;;;;19.98;9.90;;;5.70;49.40;;;;;;10005166;28;20029;-65
2022/03/10 03:41:38;;;;;;;22.10;10.15;;;5.80;49.40;;;;;;10008148;28;20025;-65
2022/03/10 03:46:29;;;;;;;25.58;10.88;;;5.70;49.20;;;;;;10012725;28;20026;-64
2022/03/10 03:51:20;;;;;;;22.42;10.60;;;5.50;49.60;;;;;;10010849;28;20022;-65
2022/03/10 03:56:11;;;;;;;20.90;11.27;;;5.40;49.70;;;;;;10003447;28;20046;-66
2022/03/10 04:01:01;;;;;;;20.58;9.52;;;5.40;50.10;;;;;;10000253;28;20571;-65
2022/03/10 04:05:52;;;;;;;20.27;9.27;;;5.40;50.40;;;;;;10010054;28;20045;-65
2022/03/10 04:10:43;;;;;;;20.42;9.40;;;5.40;50.50;;;;;;10016822;28;20395;-64
2022/03/10 04:15:34;;;;;;;19.92;10.40;;;5.30;50.30;;;;;;9997997;28;20050;-66
2022/03/10 04:20:25;;;;;;;23.60;10.43;;;5.30;50.40;;;;;;9986515;28;20128;-66
2022/03/10 04:25:16;;;;;;;23.52;11.52;;;5.20;50.50;;;;;;9999474;28;20595;-66
2022/03/10 04:30:08;;;;;;;20.27;11.02;;;5.20;50.60;;;;;;10008106;28;20030;-65
2022/03/10 04:34:58;;;;;;;20.92;9.77;;;5.00;50.70;;;;;;10006963;28;20314;-65
2022/03/10 04:39:49;;;;;;;25.90;12.45;;;4.90;50.50;;;;;;9998116;28;20486;-65
2022/03/10 04:44:39;;;;;;;28.58;10.77;;;4.90;50.90;;;;;;10002638;28;20030;-65
2022/03/10 04:49:30;;;;;;;28.75;11.82;;;4.80;50.90;;;;;;10007580;28;20074;-65
2022/03/10 04:54:21;;;;;;;21.77;11.30;;;4.70;51.10;;;;;;9987413;28;20386;-65
2022/03/10 04:59:11;;;;;;;22.25;10.65;;;4.70;51.00;;;;;;10016837;28;20037;-66
2022/03/10 05:04:02;;;;;;;20.42;10.30;;;4.80;51.10;;;;;;10020713;28;20025;-66
2022/03/10 05:08:53;;;;;;;22.88;9.73;;;4.70;51.30;;;;;;10014584;28;20044;-66
2022/03/10 05:13:43;;;;;;;27.02;11.50;;;4.60;51.40;;;;;;10003064;28;20500;-67
2022/03/10 05:18:34;;;;;;;26.55;11.88;;;4.70;51.50;;;;;;10017017;28;20037;-66
2022/03/10 05:23:25;;;;;;;29.08;12.27;;;4.50;51.50;;;;;;10007387;28;20036;-65
2022/03/10 05:28:15;;;;;;;28.55;12.20;;;4.50;52.10;;;;;;10023383;28;20373;-65
2022/03/10 05:33:07;;;;;;;20.45;9.77;;;4.30;52.20;;;;;;10008365;28;20330;-66
2022/03/10 05:37:59;;;;;;;23.00;11.35;;;4.40;52.50;;;;;;10006511;28;20057;-66
2022/03/10 05:42:53;;;;;;;25.10;11.68;;;4.50;52.50;;;;;;10011408;28;20156;-67
2022/03/10 05:47:44;;;;;;;24.25;10.38;;;4.40;52.80;;;;;;10002263;28;20511;-67
2022/03/10 05:52:36;;;;;;;21.30;11.32;;;4.30;53.10;;;;;;10010978;28;20023;-66
2022/03/10 05:57:27;;;;;;;25.48;11.25;;;4.20;53.50;;;;;;10013377;28;20034;-67
2022/03/10 06:02:18;;;;;;;22.92;10.00;;;4.10;53.70;;;;;;10009506;28;20145;-66
2022/03/10 06:07:09;;;;;;;23.70;10.45;;;4.20;54.10;;;;;;10011188;28;20413;-66
2022/03/10 06:11:59;;;;;;;23.30;10.57;;;4.30;54.50;;;;;;10014640;28;20029;-67
2022/03/10 06:16:50;;;;;;;27.42;12.40;;;4.30;54.50;;;;;;10011261;28;20044;-66
2022/03/10 06:21:41;;;;;;;24.23;11.82;;;4.30;54.70;;;;;;10004011;28;20117;-66
2022/03/10 06:26:32;;;;;;;27.00;13.45;;;4.20;54.80;;;;;;10009653;28;20033;-66
2022/03/10 06:31:24;;;;;;;23.65;11.30;;;4.30;55.10;;;;;;10013760;28;20105;-66
2022/03/10 06:36:15;;;;;;;21.67;10.82;;;4.30;55.50;;;;;;10013701;28;20122;-67
2022/03/10 06:41:07;;;;;;;23.45;10.23;;;4.30;56.00;;;;;;10012282;28;20281;-66
2022/03/10 06:45:57;;;;;;;21.90;11.35;;;4.30;56.00;;;;;;10012004;28;20500;-67
2022/03/10 06:50:48;;;;;;;22.30;10.93;;;4.30;56.20;;;;;;10003836;28;20040;-67
2022/03/10 06:55:39;;;;;;;27.42;11.02;;;4.40;56.40;;;;;;10007417;28;20239;-67
2022/03/10 07:00:30;;;;;;;24.58;11.13;;;4.40;56.40;;;;;;10009320;28;20030;-68
2022/03/10 07:05:21;;;;;;;19.17;10.25;;;4.50;56.40;;;;;;10008134;28;20040;-67
2022/03/10 07:10:12;;;;;;;21.60;11.20;;;4.50;56.40;;;;;;10014479;28;20768;-66
2022/03/10 07:15:05;;;;;;;27.75;12.48;;;4.50;57.00;;;;;;10006976;28;20124;-66
2022/03/10 07:19:55;;;;;;;26.08;13.15;;;4.50;56.50;;;;;;9998567;28;20041;-67
2022/03/10 07:24:46;;;;;;;25.42;12.43;;;4.50;56.50;;;;;;10012003;28;20030;-67
2022/03/10 07:29:37;;;;;;;29.95;12.13;;;4.50;56.60;;;;;;10012612;28;20397;-68
2022/03/10 07:34:27;;;;;;;23.67;12.15;;;4.80;56.30;;;;;;9988727;28;20511;-67
2022/03/10 07:39:18;;;;;;;24.45;11.38;;;4.70;56.90;;;;;;10012623;28;20417;-73
2022/03/10 07:44:09;;;;;;;27.98;14.82;;;4.70;56.70;;;;;;10012605;28;20469;-71
2022/03/10 07:48:59;;;;;;;28.88;14.05;;;4.80;56.70;;;;;;10010218;28;20029;-68
2022/03/10 07:53:50;;;;;;;24.95;13.32;;;4.90;56.50;;;;;;10011085;28;20701;-68
2022/03/10 07:58:41;;;;;;;27.38;13.23;;;4.90;56.60;;;;;;10010853;28;20049;-69
2022/03/10 08:03:31;;;;;;;29.70;13.15;;;5.00;56.70;;;;;;10014696;28;20025;-71
2022/03/10 08:08:22;;;;;;;24.23;13.30;;;5.20;56.50;;;;;;10014314;28;20034;-74
2022/03/10 08:13:13;;;;;;;27.48;14.43;;;5.30;56.40;;;;;;10017300;28;20318;-71
2022/03/10 08:18:06;;;;;;;32.75;15.65;;;5.30;56.50;;;;;;10006914;28;20034;-69
2022/03/10 08:22:57;;;;;;;27.70;13.80;;;5.50;56.70;;;;;;10010951;28;20022;-70
2022/03/10 08:27:48;;;;;;;30.42;14.68;;;5.60;56.70;;;;;;10009429;28;20030;-62
2022/03/10 08:32:42;;;;;;;34.20;15.68;;;5.70;56.80;;;;;;10006087;28;20033;-71
2022/03/10 08:37:33;;;;;;;31.02;14.55;;;5.80;57.00;;;;;;10008123;28;20592;-67
2022/03/10 08:42:23;;;;;;;35.92;16.02;;;5.90;57.10;;;;;;10008565;28;20578;-67
2022/03/10 08:47:14;;;;;;;35.70;14.70;;;6.00;56.70;;;;;;10000679;28;20501;-70
2022/03/10 08:52:06;;;;;;;30.77;15.90;;;6.20;56.80;;;;;;10001907;28;20033;-68
2022/03/10 08:56:56;;;;;;;33.05;15.07;;;6.30;56.70;;;;;;10005918;28;20030;-67
2022/03/10 09:01:47;;;;;;;28.88;14.32;;;6.40;56.80;;;;;;9994772;28;20408;-69
2022/03/10 09:06:38;;;;;;;28.02;15.43;;;6.50;57.00;;;;;;10004422;28;20033;-69
2022/03/10 09:11:28;;;;;;;33.17;15.35;;;6.60;57.00;;;;;;10008564;28;20372;-73
2022/03/10 09:16:21;;;;;;;35.35;18.85;;;6.70;56.90;;;;;;10009374;28;20081;-68
2022/03/10 09:21:15;;;;;;;33.75;18.10;;;6.90;56.90;;;;;;10003228;28;20049;-69
2022/03/10 09:26:07;;;;;;;33.60;17.35;;;7.10;56.90;;;;;;10005632;28;20022;-69
2022/03/10 09:30:57;;;;;;;38.13;16.92;;;7.20;56.80;;;;;;10006836;28;20041;-65
2022/03/10 09:35:48;;;;;;;32.25;18.08;;;7.50;56.60;;;;;;10009839;28;20041;-67
2022/03/10 09:40:39;;;;;;;32.78;16.67;;;7.60;56.50;;;;;;10006317;28;20489;-66
2022/03/10 09:45:30;;;;;;;31.17;16.75;;;7.60;56.50;;;;;;10019476;28;20022;-69
2022/03/10 09:50:21;;;;;;;28.23;15.25;;;7.70;56.60;;;;;;10016786;28;20085;-68
2022/03/10 09:55:14;;;;;;;34.45;15.70;;;7.90;56.50;;;;;;10019106;28;20476;-69
2022/03/10 10:00:06;;;;;;;31.98;17.88;;;8.00;56.50;;;;;;10017477;28;20103;-69
2022/03/10 10:04:57;;;;;;;26.42;15.52;;;8.20;56.30;;;;;;10012839;28;20022;-69
2022/03/10 10:09:54;;;;;;;29.67;15.10;;;8.30;56.20;;;;;;10012944;28;20476;-70
2022/03/10 10:14:46;;;;;;;33.40;16.77;;;8.30;56.30;;;;;;10015106;28;20057;-69
2022/03/10 10:19:40;;;;;;;33.42;16.05;;;8.60;56.10;;;;;;10016009;28;20102;-69
2022/03/10 10:24:31;;;;;;;34.75;16.65;;;8.70;55.80;;;;;;10014087;28;20489;-67
2022/03/10 10:29:27;;;;;;;30.05;15.80;;;8.80;55.80;;;;;;10015733;28;20033;-71
2022/03/10 10:34:30;;;;;;;29.20;14.68;;;8.90;55.50;;;;;;10013995;28;20026;-70
2022/03/10 10:39:21;;;;;;;31.17;15.15;;;9.00;55.30;;;;;;10012092;28;20132;-73
2022/03/10 10:44:19;;;;;;;34.78;16.10;;;9.20;55.00;;;;;;10015299;28;20029;-68
2022/03/10 10:49:17;;;;;;;32.83;16.42;;;9.30;54.80;;;;;;10002409;28;20069;-69
2022/03/10 10:54:31;;;;;;;34.65;16.23;;;9.40;54.80;;;;;;10007621;28;20018;-74
2022/03/10 10:59:34;;;;;;;24.30;12.75;;;9.60;54.50;;;;;;10008056;28;20400;-74
2022/03/10 11:04:26;;;;;;;29.98;14.32;;;9.70;54.40;;;;;;10012528;28;20492;-74
2022/03/10 11:09:17;;;;;;;30.08;15.70;;;9.70;54.10;;;;;;9993821;28;20235;-67
2022/03/10 11:14:08;;;;;;;29.75;14.35;;;9.80;53.90;;;;;;9978010;28;20261;-72
2022/03/10 11:19:00;;;;;;;27.33;13.27;;;9.90;53.90;;;;;;10002707;28;20049;-70
2022/03/10 11:24:05;;;;;;;30.45;13.95;;;9.90;53.70;;;;;;10009518;28;20417;-71
2022/03/10 11:28:57;;;;;;;32.05;15.57;;;10.00;53.80;;;;;;10000445;28;20026;-73
2022/03/10 11:33:49;;;;;;;27.45;14.93;;;10.20;53.40;;;;;;9987866;28;20109;-70
2022/03/10 11:38:56;;;;;;;32.13;16.52;;;10.40;53.20;;;;;;9998189;28;20095;-70
2022/03/10 11:44:01;;;;;;;28.15;14.45;;;10.60;53.10;;;;;;9992371;28;20033;-73
2022/03/10 11:49:07;;;;;;;26.47;12.00;;;10.80;52.60;;;;;;10008196;28;20037;-69
2022/03/10 11:54:05;;;;;;;25.02;12.18;;;10.80;52.30;;;;;;9984012;28;20269;-71
2022/03/10 11:58:56;;;;;;;23.60;11.57;;;10.90;52.10;;;;;;9995725;28;20049;-71
2022/03/10 12:03:46;;;;;;;28.63;12.95;;;11.00;51.80;;;;;;9991398;28;20412;-69
2022/03/10 12:08:40;;;;;;;28.50;11.98;;;11.10;51.20;;;;;;9989160;28;20038;-68
2022/03/10 12:13:34;;;;;;;28.42;11.75;;;11.20;52.20;;;;;;9995065;28;20050;-68
2022/03/10 12:18:29;;;;;;;21.45;10.40;;;11.40;50.90;;;;;;10004994;28;20129;-70
2022/03/10 12:23:23;;;;;;;21.90;10.52;;;11.60;50.50;;;;;;10010932;28;20096;-67
2022/03/10 12:28:22;;;;;;;19.45;11.20;;;11.80;50.30;;;;;;10011789;28;20120;-68
2022/03/10 12:33:12;;;;;;;20.45;10.63;;;12.10;49.70;;;;;;9996338;28;20022;-67
2022/03/10 12:38:04;;;;;;;19.13;9.73;;;12.30;49.50;;;;;;10009557;28;20095;-67
2022/03/10 12:43:03;;;;;;;19.52;10.30;;;12.40;49.10;;;;;;9998852;28;20433;-67
2022/03/10 12:48:32;;;;;;;23.08;11.00;;;12.80;48.80;;;;;;10002931;28;20022;-67
2022/03/10 12:53:22;;;;;;;19.98;11.25;;;13.40;47.40;;;;;;9995536;28;20484;-67
2022/03/10 12:58:13;;;;;;;17.33;9.48;;;13.60;47.70;;;;;;9998158;28;20038;-68
2022/03/10 13:03:04;;;;;;;18.83;10.25;;;14.00;48.00;;;;;;9991452;28;20065;-67
2022/03/10 13:08:08;;;;;;;15.15;9.15;;;14.50;47.80;;;;;;10004075;28;20076;-67
2022/03/10 13:12:59;;;;;;;15.73;10.35;;;14.90;47.90;;;;;;9993604;28;20085;-68
2022/03/10 13:17:51;;;;;;;14.77;9.35;;;15.10;47.40;;;;;;10004611;28;20455;-68
2022/03/10 13:22:49;;;;;;;17.60;10.45;;;15.60;47.70;;;;;;10014633;28;20046;-67
2022/03/10 13:27:40;;;;;;;18.08;10.40;;;16.10;46.50;;;;;;10015601;28;20049;-65
2022/03/10 13:32:32;;;;;;;14.98;9.68;;;16.40;47.20;;;;;;10012582;28;20434;-65
2022/03/10 13:37:24;;;;;;;16.00;10.18;;;17.00;47.20;;;;;;10012570;28;20144;-68
2022/03/10 13:42:24;;;;;;;13.30;8.90;;;17.60;46.90;;;;;;10007797;28;20428;-68
2022/03/10 13:47:18;;;;;;;11.52;8.10;;;17.90;44.60;;;;;;10026554;28;20056;-67
2022/03/10 13:52:13;;;;;;;10.55;7.13;;;18.70;45.40;;;;;;10012713;28;20341;-66
2022/03/10 13:57:07;;;;;;;11.15;7.55;;;20.50;41.70;;;;;;9997404;28;20105;-73
2022/03/10 14:01:58;;;;;;;8.82;6.45;;;21.30;38.60;;;;;;10004070;28;20049;-68
2022/03/10 14:06:50;;;;;;;11.07;6.43;;;21.70;38.20;;;;;;10009361;28;20022;-68
2022/03/10 14:11:41;;;;;;;8.43;6.05;;;21.90;37.70;;;;;;10016250;28;20510;-69
2022/03/10 14:16:31;;;;;;;8.73;5.85;;;22.50;37.00;;;;;;10018739;28;20064;-66
2022/03/10 14:21:25;;;;;;;9.30;6.00;;;22.30;35.80;;;;;;10020160;28;20044;-72
2022/03/10 14:26:17;;;;;;;9.77;5.28;;;22.50;35.50;;;;;;10014634;28;20176;-69
2022/03/10 14:31:10;;;;;;;8.63;5.75;;;22.90;34.50;;;;;;10011977;28;20260;-68
2022/03/10 14:36:01;;;;;;;7.65;4.60;;;23.10;33.40;;;;;;10020301;28;20475;-68
2022/03/10 14:40:52;;;;;;;7.80;5.25;;;23.00;32.90;;;;;;10006028;28;20050;-67
2022/03/10 14:45:44;;;;;;;7.53;5.28;;;24.50;31.40;;;;;;10007596;28;20350;-73
2022/03/10 14:50:35;;;;;;;8.38;5.45;;;25.40;30.40;;;;;;9995108;28;20034;-75
2022/03/10 14:55:26;;;;;;;9.70;5.35;;;26.80;29.60;;;;;;9991176;28;20021;-70
2022/03/10 15:00:17;;;;;;;9.30;4.97;;;27.30;28.90;;;;;;10007891;28;20053;-67
2022/03/10 15:05:10;;;;;;;8.40;5.90;;;28.40;28.20;;;;;;10021251;28;20034;-71
2022/03/10 15:10:01;;;;;;;8.07;5.10;;;28.90;27.50;;;;;;10020982;28;20029;-74
2022/03/10 15:14:52;;;;;;;7.70;4.30;;;29.40;27.10;;;;;;10007555;28;20045;-74
2022/03/10 15:19:43;;;;;;;7.20;5.20;;;29.00;26.50;;;;;;10009721;28;20048;-72
2022/03/10 15:24:37;;;;;;;8.65;4.72;;;29.60;26.30;;;;;;10012293;28;20036;-68
2022/03/10 15:29:29;;;;;;;9.13;4.90;;;29.80;25.90;;;;;;10009168;28;20441;-72
2022/03/10 15:34:19;;;;;;;8.35;4.63;;;30.20;25.50;;;;;;10025785;28;20025;-68
2022/03/10 15:39:11;;;;;;;7.05;3.88;;;30.40;25.30;;;;;;10010646;28;20500;-69
2022/03/10 15:44:03;;;;;;;5.57;4.18;;;30.50;25.10;;;;;;10011690;28;20030;-69
2022/03/10 15:48:55;;;;;;;9.30;5.30;;;30.30;24.80;;;;;;10011366;28;20386;-68
2022/03/10 15:53:46;;;;;;;9.18;4.40;;;29.80;24.80;;;;;;10009813;28;20030;-68
2022/03/10 15:58:37;;;;;;;7.88;4.22;;;29.40;24.70;;;;;;10013219;28;20496;-72
2022/03/10 16:03:27;;;;;;;8.40;4.20;;;29.20;24.50;;;;;;10008200;28;20515;-67
2022/03/10 16:08:18;;;;;;;7.10;3.88;;;28.90;24.50;;;;;;10008799;28;20033;-66
2022/03/10 16:13:09;;;;;;;4.53;3.50;;;28.90;24.60;;;;;;10010854;28;20047;-71
2022/03/10 16:17:59;;;;;;;6.63;3.47;;;28.50;24.60;;;;;;10021270;28;20040;-70
2022/03/10 16:22:50;;;;;;;5.82;3.25;;;28.20;24.50;;;;;;10015836;28;20653;-68
2022/03/10 16:27:42;;;;;;;4.20;3.10;;;27.50;24.40;;;;;;10021074;28;20041;-62
2022/03/10 16:32:32;;;;;;;3.92;2.78;;;24.00;25.50;;;;;;10011048;28;20037;-65
2022/03/10 16:37:23;;;;;;;5.68;3.15;;;20.40;27.10;;;;;;10017856;28;20285;-69
2022/03/10 16:42:15;;;;;;;3.80;2.75;;;18.80;27.70;;;;;;9999682;28;20713;-73
2022/03/10 16:47:08;;;;;;;3.25;2.55;;;17.90;27.70;;;;;;10004463;28;20025;-66
2022/03/10 16:51:58;;;;;;;6.40;2.75;;;17.50;27.60;;;;;;10018850;28;20111;-68
2022/03/10 16:56:49;;;;;;;4.45;2.88;;;17.10;27.60;;;;;;10028099;28;20092;-69
2022/03/10 17:01:40;;;;;;;6.18;2.78;;;16.80;28.20;;;;;;10030134;28;20405;-68
2022/03/10 17:06:32;;;;;;;6.63;2.60;;;16.60;27.70;;;;;;10030464;28;20030;-70
2022/03/10 17:11:23;;;;;;;2.60;1.65;;;16.40;27.90;;;;;;10022943;28;20042;-67
2022/03/10 17:16:14;;;;;;;3.78;2.20;;;16.20;28.20;;;;;;10004942;28;20054;-67
2022/03/10 17:21:04;;;;;;;4.75;2.30;;;16.00;28.30;;;;;;10003837;28;20407;-65
2022/03/10 17:25:56;;;;;;;13.43;3.50;;;15.80;28.50;;;;;;10010993;28;20045;-63
2022/03/10 17:30:47;;;;;;;4.65;2.72;;;15.60;28.60;;;;;;10004546;28;20034;-68
2022/03/10 17:35:38;;;;;;;3.40;1.88;;;15.40;28.80;;;;;;10005720;28;20034;-68
2022/03/10 17:40:30;;;;;;;4.18;2.05;;;15.30;29.00;;;;;;10023652;28;20042;-66
2022/03/10 17:45:21;;;;;;;5.85;2.10;;;15.20;29.20;;;;;;10013932;28;20064;-68
2022/03/10 17:50:12;;;;;;;3.50;1.73;;;15.00;29.40;;;;;;10008218;28;20124;-68
2022/03/10 17:55:03;;;;;;;4.45;3.20;;;14.90;29.60;;;;;;10001481;28;20506;-67
2022/03/10 17:59:54;;;;;;;6.10;2.70;;;14.90;29.60;;;;;;10006645;28;20080;-64
2022/03/10 18:04:45;;;;;;;5.00;3.38;;;14.80;29.80;;;;;;10017716;28;20109;-70
2022/03/10 18:09:36;;;;;;;8.43;4.40;;;14.60;29.90;;;;;;10016675;28;20408;-69
2022/03/10 18:14:27;;;;;;;16.02;5.97;;;14.50;30.00;;;;;;10019559;28;20049;-66
2022/03/10 18:19:17;;;;;;;7.82;4.05;;;14.40;30.20;;;;;;9987194;28;20061;-67
2022/03/10 18:24:09;;;;;;;6.47;3.05;;;14.30;30.40;;;;;;10009116;28;20396;-67
2022/03/10 18:29:00;;;;;;;4.80;2.88;;;14.20;30.50;;;;;;10011782;28;20363;-66
2022/03/10 18:33:50;;;;;;;9.70;3.38;;;14.20;30.70;;;;;;9997686;28;20037;-68
2022/03/10 18:38:41;;;;;;;11.20;4.20;;;14.10;30.70;;;;;;10011288;28;20042;-69
2022/03/10 18:43:32;;;;;;;5.78;3.35;;;13.90;30.80;;;;;;10002682;28;20641;-69
2022/03/10 18:48:23;;;;;;;8.57;4.25;;;13.90;30.90;;;;;;9994592;28;20308;-67
2022/03/10 18:53:13;;;;;;;7.55;3.00;;;13.90;30.90;;;;;;9996954;28;20031;-66
2022/03/10 18:58:04;;;;;;;4.82;2.67;;;13.80;31.00;;;;;;9997986;28;20077;-66
2022/03/10 19:02:54;;;;;;;8.18;3.55;;;13.80;31.00;;;;;;9983866;28;20112;-68
2022/03/10 19:07:45;;;;;;;8.73;4.18;;;13.70;31.20;;;;;;9985068;28;20034;-66
2022/03/10 19:12:36;;;;;;;13.63;6.05;;;13.50;31.20;;;;;;10005275;28;20094;-66
2022/03/10 19:17:27;;;;;;;10.00;4.35;;;13.50;31.30;;;;;;9999612;28;20302;-67
2022/03/10 19:22:17;;;;;;;10.50;4.28;;;13.40;31.40;;;;;;10008229;28;20416;-66
2022/03/10 19:27:08;;;;;;;8.25;3.95;;;13.30;31.50;;;;;;9996510;28;20026;-67
2022/03/10 19:31:59;;;;;;;11.00;4.68;;;13.20;31.60;;;;;;10005129;28;20083;-66
2022/03/10 19:36:50;;;;;;;5.82;3.90;;;13.20;31.80;;;;;;9996575;28;20026;-66
2022/03/10 19:41:41;;;;;;;8.15;4.20;;;13.10;31.90;;;;;;9997661;28;20044;-65
2022/03/10 19:46:31;;;;;;;9.73;4.95;;;13.10;32.00;;;;;;10001221;28;20041;-65
2022/03/10 19:51:23;;;;;;;8.90;4.00;;;13.00;32.20;;;;;;9984949;28;20030;-69
2022/03/10 19:56:17;;;;;;;8.07;3.92;;;13.00;32.20;;;;;;9982436;28;20030;-71
2022/03/10 20:01:08;;;;;;;7.50;4.30;;;12.90;32.30;;;;;;9993598;28;20041;-67
2022/03/10 20:05:58;;;;;;;10.23;4.68;;;12.80;32.40;;;;;;10002297;28;20400;-68
2022/03/10 20:10:49;;;;;;;10.80;4.35;;;12.70;32.50;;;;;;10000114;28;20042;-68
2022/03/10 20:15:40;;;;;;;8.25;4.72;;;12.70;32.60;;;;;;10012718;28;20041;-66
2022/03/10 20:20:32;;;;;;;9.75;4.05;;;12.60;32.70;;;;;;9981782;28;20037;-68
2022/03/10 20:25:23;;;;;;;9.55;4.35;;;12.60;32.80;;;;;;10009869;28;20058;-69
2022/03/10 20:30:13;;;;;;;10.95;5.20;;;12.50;32.90;;;;;;9995676;28;20041;-69
2022/03/10 20:35:05;;;;;;;8.07;4.47;;;12.40;33.10;;;;;;10002820;28;20245;-67
2022/03/10 20:39:56;;;;;;;9.57;5.00;;;12.40;33.10;;;;;;9996805;28;20200;-66
2022/03/10 20:44:47;;;;;;;11.90;4.95;;;12.30;33.20;;;;;;9990725;28;20121;-66
2022/03/10 20:49:38;;;;;;;10.05;5.20;;;12.20;33.30;;;;;;9997942;28;20463;-67
2022/03/10 20:54:29;;;;;;;8.45;4.30;;;12.20;33.40;;;;;;9989740;28;20030;-68
2022/03/10 20:59:24;;;;;;;11.48;4.95;;;12.10;33.50;;;;;;9994460;28;20488;-66
2022/03/10 21:04:14;;;;;;;8.23;4.82;;;12.10;33.50;;;;;;9996610;28;20034;-67
2022/03/10 21:09:05;;;;;;;15.88;6.60;;;12.00;33.60;;;;;;10006147;28;20034;-66
2022/03/10 21:13:56;;;;;;;11.05;5.78;;;12.00;33.70;;;;;;9983017;28;20133;-67
2022/03/10 21:18:47;;;;;;;9.82;4.50;;;11.80;33.70;;;;;;9983693;28;20132;-68
2022/03/10 21:23:37;;;;;;;11.63;5.95;;;11.80;33.90;;;;;;10025635;28;20193;-65
2022/03/10 21:28:28;;;;;;;9.52;4.60;;;11.60;34.00;;;;;;10002237;28;20114;-69
2022/03/10 21:33:19;;;;;;;10.18;4.85;;;11.60;34.10;;;;;;9980014;28;20037;-71
2022/03/10 21:38:10;;;;;;;6.85;3.75;;;11.60;34.20;;;;;;10010592;28;20115;-71
2022/03/10 21:43:01;;;;;;;8.05;4.35;;;11.60;34.30;;;;;;9999755;28;20030;-71
2022/03/10 21:47:51;;;;;;;9.98;4.57;;;11.60;34.40;;;;;;10002698;28;20030;-76
2022/03/10 21:52:42;;;;;;;6.68;4.38;;;11.50;34.40;;;;;;10006086;28;20034;-71
2022/03/10 21:57:33;;;;;;;9.00;4.55;;;11.50;34.40;;;;;;10011294;28;20018;-73
2022/03/10 22:02:24;;;;;;;8.38;4.68;;;11.30;34.50;;;;;;10010455;28;20038;-68
2022/03/10 22:07:15;;;;;;;8.63;4.80;;;11.30;34.60;;;;;;10011391;28;20030;-70
2022/03/10 22:12:06;;;;;;;8.02;4.57;;;11.20;34.60;;;;;;10011371;28;20105;-73
2022/03/10 22:16:57;;;;;;;11.68;5.10;;;11.10;34.80;;;;;;10011142;28;20100;-70
2022/03/10 22:21:48;;;;;;;7.85;5.15;;;11.00;34.90;;;;;;10026509;28;20037;-70
2022/03/10 22:26:38;;;;;;;8.70;4.63;;;10.90;35.00;;;;;;10011515;28;20025;-73
2022/03/10 22:31:29;;;;;;;9.60;4.80;;;10.80;35.10;;;;;;10010367;28;20033;-70
2022/03/10 22:36:20;;;;;;;8.43;5.32;;;10.70;35.20;;;;;;10007272;28;20480;-73
2022/03/10 22:41:11;;;;;;;8.38;5.32;;;10.60;35.40;;;;;;10008992;28;20050;-66
2022/03/10 22:46:02;;;;;;;12.35;5.60;;;10.60;35.60;;;;;;10001985;28;20050;-70
2022/03/10 22:56:02;;;;;;;23.85;10.93;;;10.50;35.90;;;;;;9997581;28;20708;-68
2022/03/10 23:00:53;;;;;;;12.98;5.95;;;10.40;36.20;;;;;;9995672;28;20045;-69
2022/03/10 23:10:54;;;;;;;10.95;6.10;;;10.40;36.40;;;;;;9992013;28;20041;-71
2022/03/10 23:15:45;;;;;;;9.98;6.03;;;10.20;36.50;;;;;;9992708;28;20417;-71
2022/03/10 23:20:37;;;;;;;10.07;6.40;;;10.00;36.70;;;;;;9987949;28;20119;-70
2022/03/10 23:25:27;;;;;;;13.05;6.32;;;10.00;36.90;;;;;;9997127;28;20030;-69
2022/03/10 23:30:18;;;;;;;11.02;6.22;;;9.90;37.00;;;;;;9997917;28;20052;-68
2022/03/10 23:35:09;;;;;;;11.43;6.28;;;9.90;37.10;;;;;;10006757;28;20033;-69
2022/03/10 23:40:00;;;;;;;14.93;6.68;;;9.70;37.30;;;;;;9998465;28;20053;-69
2022/03/10 23:44:50;;;;;;;11.15;7.30;;;9.40;37.80;;;;;;9987883;28;20029;-69
2022/03/10 23:49:41;;;;;;;11.98;6.88;;;9.40;37.70;;;;;;9994376;28;20109;-67
2022/03/10 23:54:32;;;;;;;10.73;5.50;;;9.20;38.00;;;;;;9984435;28;20092;-71
2022/03/10 23:59:23;;;;;;;9.70;4.95;;;9.00;38.20;;;;;;9981797;28;20097;-68
